Time;durP1;ratioP1;P1;durP2;ratioP2;P2;SDS_P1;SDS_P2;PMS_P1;PMS_P2;Temp;Humidity;BMP_temperature;BMP_pressure;BME280_temperature;BME280_humidity;BME280_pressure;Samples;Min_cycle;Max_cycle;Signal;HPM_P1;HPM_P2
2022/04/17 00:00:28;;;;;;;63.97;44.45;;;;;;;;;;5060764;28;20128;-61
2022/04/17 00:02:54;;;;;;;66.43;44.47;;;;;;;;;;5054121;28;20051;-60
2022/04/17 00:05:20;;;;;;;64.72;44.47;;;;;;;;;;5059404;28;20033;-61
2022/04/17 00:07:47;;;;;;;65.82;46.33;;;;;;;;;;5061175;28;20433;-61
2022/04/17 00:10:13;;;;;;;63.88;43.40;;;;;;;;;;5054334;28;20049;-60
2022/04/17 00:12:40;;;;;;;64.93;44.67;;;;;;;;;;5053602;28;20496;-60
2022/04/17 00:15:07;;;;;;;63.88;43.72;;;;;;;;;;5055336;28;20470;-60
2022/04/17 00:17:33;;;;;;;62.05;41.05;;;;;;;;;;5054240;28;20076;-61
2022/04/17 00:19:59;;;;;;;65.75;42.95;;;;;;;;;;5058386;28;20041;-60
2022/04/17 00:22:26;;;;;;;61.22;41.90;;;;;;;;;;5064563;28;20049;-61
2022/04/17 00:24:52;;;;;;;65.53;43.13;;;;;;;;;;5064996;28;20033;-61
2022/04/17 00:27:18;;;;;;;66.43;42.35;;;;;;;;;;5041644;28;20119;-61
2022/04/17 00:29:45;;;;;;;59.33;40.45;;;;;;;;;;5065485;28;20036;-62
2022/04/17 00:32:11;;;;;;;57.50;36.97;;;;;;;;;;5062069;28;20040;-61
2022/04/17 00:34:37;;;;;;;54.20;36.35;;;;;;;;;;5055795;28;20384;-61
2022/04/17 00:37:04;;;;;;;54.05;35.08;;;;;;;;;;5045015;28;20044;-60
2022/04/17 00:39:31;;;;;;;52.38;35.92;;;;;;;;;;5063237;28;20171;-61
2022/04/17 00:41:58;;;;;;;47.72;32.67;;;;;;;;;;5056996;28;20652;-61
2022/04/17 00:44:24;;;;;;;50.53;34.22;;;;;;;;;;5057661;28;20037;-60
2022/04/17 00:46:50;;;;;;;45.67;31.42;;;;;;;;;;5040156;28;20033;-62
2022/04/17 00:49:16;;;;;;;44.50;30.50;;;;;;;;;;5063663;28;20033;-60
2022/04/17 00:51:43;;;;;;;42.22;30.02;;;;;;;;;;5066197;28;20398;-60
2022/04/17 00:54:12;;;;;;;47.38;30.33;;;;;;;;;;5059473;28;20056;-61
2022/04/17 00:56:38;;;;;;;43.22;29.58;;;;;;;;;;5065004;28;20040;-60
2022/04/17 00:59:06;;;;;;;39.40;28.02;;;;;;;;;;5061674;28;20047;-61
2022/04/17 01:01:33;;;;;;;37.78;26.73;;;;;;;;;;5062039;28;20104;-60
2022/04/17 01:04:03;;;;;;;36.47;26.08;;;;;;;;;;5047087;28;20086;-61
2022/04/17 01:06:29;;;;;;;43.65;28.02;;;;;;;;;;5061779;28;20045;-60
2022/04/17 01:08:55;;;;;;;38.00;25.80;;;;;;;;;;5067049;28;20045;-62
2022/04/17 01:11:21;;;;;;;35.20;25.20;;;;;;;;;;5047088;28;20135;-64
2022/04/17 01:13:48;;;;;;;39.65;25.48;;;;;;;;;;5063679;28;20063;-61
2022/04/17 01:16:17;;;;;;;33.35;23.50;;;;;;;;;;5064995;28;20044;-60
2022/04/17 01:18:55;;;;;;;32.20;22.35;;;;;;;;;;5040121;28;20110;-61
2022/04/17 01:21:22;;;;;;;29.02;20.42;;;;;;;;;;5070006;28;20041;-61
2022/04/17 01:29:19;;;;;;;29.15;19.63;;;;;;;;;;5058067;28;20055;-61
2022/04/17 01:31:46;;;;;;;27.65;19.02;;;;;;;;;;5057877;28;20514;-60
2022/04/17 01:34:14;;;;;;;28.00;18.65;;;;;;;;;;5054831;28;20140;-61
2022/04/17 01:36:41;;;;;;;24.20;17.35;;;;;;;;;;5064228;28;20102;-61
2022/04/17 01:39:07;;;;;;;24.17;17.42;;;;;;;;;;5058321;28;20044;-60
2022/04/17 01:41:33;;;;;;;25.05;16.42;;;;;;;;;;5065365;28;20098;-60
2022/04/17 01:43:59;;;;;;;21.90;16.13;;;;;;;;;;5064659;28;20482;-61
2022/04/17 01:46:25;;;;;;;22.88;16.50;;;;;;;;;;5062115;28;20083;-61
2022/04/17 01:48:51;;;;;;;26.17;17.10;;;;;;;;;;5057690;28;20029;-60
2022/04/17 01:51:17;;;;;;;22.08;15.60;;;;;;;;;;5065218;28;20038;-60
2022/04/17 01:53:43;;;;;;;24.23;15.75;;;;;;;;;;5042323;28;20202;-61
2022/04/17 01:56:09;;;;;;;20.33;15.05;;;;;;;;;;5052770;28;20037;-62
2022/04/17 01:58:35;;;;;;;18.90;14.80;;;;;;;;;;5056768;28;20037;-61
2022/04/17 02:01:02;;;;;;;23.55;14.57;;;;;;;;;;5067211;28;20121;-61
2022/04/17 02:03:28;;;;;;;17.80;13.25;;;;;;;;;;5063965;28;20040;-61
2022/04/17 02:05:54;;;;;;;20.75;14.15;;;;;;;;;;5054696;28;20076;-62
2022/04/17 02:08:21;;;;;;;20.90;14.38;;;;;;;;;;5064752;28;20032;-61
2022/04/17 02:10:47;;;;;;;21.73;12.60;;;;;;;;;;5055310;28;20029;-61
2022/04/17 02:13:13;;;;;;;19.45;13.48;;;;;;;;;;5062990;28;20142;-61
2022/04/17 02:15:45;;;;;;;19.65;13.82;;;;;;;;;;5062377;28;20101;-61
2022/04/17 02:18:13;;;;;;;20.52;13.57;;;;;;;;;;5042800;28;20068;-61
2022/04/17 02:20:39;;;;;;;21.17;13.45;;;;;;;;;;5062679;28;20029;-60
2022/04/17 02:23:05;;;;;;;23.17;13.23;;;;;;;;;;5059410;28;20572;-61
2022/04/17 02:25:31;;;;;;;17.98;12.20;;;;;;;;;;5056726;28;20041;-61
2022/04/17 02:27:57;;;;;;;16.55;11.98;;;;;;;;;;5060062;28;20041;-61
2022/04/17 02:30:23;;;;;;;20.85;12.45;;;;;;;;;;5062454;28;20044;-62
2022/04/17 02:32:49;;;;;;;17.08;11.95;;;;;;;;;;5062379;28;20476;-61
2022/04/17 02:35:17;;;;;;;22.38;14.57;;;;;;;;;;5060217;28;20087;-61
2022/04/17 02:37:43;;;;;;;22.83;17.02;;;;;;;;;;5056629;28;20114;-60
2022/04/17 02:40:09;;;;;;;33.35;22.20;;;;;;;;;;5062586;28;20049;-61
2022/04/17 02:42:35;;;;;;;36.95;25.15;;;;;;;;;;5052440;28;20056;-62
2022/04/17 02:45:01;;;;;;;44.72;29.33;;;;;;;;;;5056185;28;20547;-60
2022/04/17 02:47:42;;;;;;;41.25;24.85;;;;;;;;;;5063319;28;20037;-62
2022/04/17 02:50:08;;;;;;;44.53;31.00;;;;;;;;;;5056805;28;20132;-61
2022/04/17 02:52:35;;;;;;;45.53;31.75;;;;;;;;;;5061260;28;20055;-61
2022/04/17 02:55:01;;;;;;;41.85;29.92;;;;;;;;;;5053953;28;20044;-62
2022/04/17 02:57:28;;;;;;;43.45;30.52;;;;;;;;;;5063101;28;20091;-60
2022/04/17 02:59:54;;;;;;;42.00;27.95;;;;;;;;;;5061383;28;20482;-61
2022/04/17 03:07:50;;;;;;;46.47;32.97;;;;;;;;;;5051401;28;20479;-62
2022/04/17 03:10:16;;;;;;;45.22;30.35;;;;;;;;;;5060842;28;20558;-60
2022/04/17 03:12:42;;;;;;;37.58;25.88;;;;;;;;;;5055824;28;20064;-61
2022/04/17 03:15:08;;;;;;;38.58;26.27;;;;;;;;;;5054156;28;20043;-61
2022/04/17 03:17:34;;;;;;;40.03;25.00;;;;;;;;;;5052411;28;20045;-60
2022/04/17 03:20:01;;;;;;;46.38;30.45;;;;;;;;;;5056538;28;20040;-61
2022/04/17 03:22:27;;;;;;;49.55;34.78;;;;;;;;;;5063604;28;20491;-61
2022/04/17 03:24:53;;;;;;;52.00;35.83;;;;;;;;;;5055555;28;20033;-61
2022/04/17 03:27:19;;;;;;;50.85;35.50;;;;;;;;;;5063443;28;20480;-61
2022/04/17 03:29:45;;;;;;;51.80;34.65;;;;;;;;;;5059297;28;20573;-61
2022/04/17 03:32:11;;;;;;;49.97;33.72;;;;;;;;;;5061642;28;20046;-60
2022/04/17 03:34:37;;;;;;;48.10;34.33;;;;;;;;;;5057089;28;20061;-61
2022/04/17 03:37:04;;;;;;;47.78;35.35;;;;;;;;;;5064373;28;20036;-62
2022/04/17 03:39:32;;;;;;;52.83;35.35;;;;;;;;;;5041066;28;20399;-60
2022/04/17 03:41:58;;;;;;;52.92;35.65;;;;;;;;;;5058044;28;20080;-61
2022/04/17 03:44:24;;;;;;;49.50;34.38;;;;;;;;;;5065969;28;20101;-60
2022/04/17 03:46:51;;;;;;;48.05;32.13;;;;;;;;;;5053699;28;20040;-62
2022/04/17 03:49:17;;;;;;;49.38;33.88;;;;;;;;;;5071316;28;20037;-61
2022/04/17 03:51:43;;;;;;;48.22;33.55;;;;;;;;;;5037839;28;20041;-61
2022/04/17 03:54:10;;;;;;;44.78;32.30;;;;;;;;;;5059736;28;20032;-61
2022/04/17 03:56:36;;;;;;;46.00;31.80;;;;;;;;;;5063834;28;20059;-60
2022/04/17 03:59:02;;;;;;;44.17;29.80;;;;;;;;;;5062801;28;20514;-61
2022/04/17 04:01:29;;;;;;;45.45;31.40;;;;;;;;;;5051765;28;20040;-62
2022/04/17 04:03:55;;;;;;;48.35;33.28;;;;;;;;;;5055686;28;20067;-61
2022/04/17 04:06:21;;;;;;;44.92;31.15;;;;;;;;;;5061836;28;20102;-61
2022/04/17 04:08:50;;;;;;;43.95;30.48;;;;;;;;;;5060301;28;20036;-61
2022/04/17 04:11:20;;;;;;;44.42;30.30;;;;;;;;;;5054746;28;20106;-61
2022/04/17 04:13:46;;;;;;;44.28;32.13;;;;;;;;;;5059220;28;20087;-62
2022/04/17 04:16:12;;;;;;;45.63;31.42;;;;;;;;;;5062311;28;20505;-62
2022/04/17 04:18:38;;;;;;;47.58;32.75;;;;;;;;;;5064073;28;20040;-61
2022/04/17 04:21:04;;;;;;;44.25;31.67;;;;;;;;;;5066403;28;20076;-60
2022/04/17 04:23:37;;;;;;;44.05;29.52;;;;;;;;;;5064886;28;20041;-61
2022/04/17 04:26:04;;;;;;;41.53;29.60;;;;;;;;;;5060423;28;20441;-60
2022/04/17 04:28:34;;;;;;;44.80;30.55;;;;;;;;;;5064006;28;20075;-61
2022/04/17 04:31:07;;;;;;;42.08;31.05;;;;;;;;;;5054600;28;20044;-60
2022/04/17 04:33:34;;;;;;;42.47;30.75;;;;;;;;;;5060854;28;20061;-60
2022/04/17 04:36:01;;;;;;;42.80;30.08;;;;;;;;;;5059506;28;20040;-60
2022/04/17 04:38:28;;;;;;;42.92;29.10;;;;;;;;;;5058788;28;20036;-61
2022/04/17 04:40:54;;;;;;;40.92;29.40;;;;;;;;;;5061561;28;20083;-61
2022/04/17 04:43:23;;;;;;;38.70;28.85;;;;;;;;;;5065038;28;20045;-61
2022/04/17 04:51:19;;;;;;;39.15;27.10;;;;;;;;;;5074428;28;20136;-63
2022/04/17 04:53:46;;;;;;;36.28;26.80;;;;;;;;;;5055230;28;20072;-62
2022/04/17 04:56:15;;;;;;;38.78;28.05;;;;;;;;;;5057238;28;20029;-63
2022/04/17 04:58:42;;;;;;;36.00;26.73;;;;;;;;;;5065785;28;20546;-62
2022/04/17 05:01:11;;;;;;;42.05;26.98;;;;;;;;;;5039661;28;20037;-62
2022/04/17 05:03:37;;;;;;;35.15;24.90;;;;;;;;;;5063209;28;20542;-62
2022/04/17 05:06:03;;;;;;;36.42;27.15;;;;;;;;;;5061972;28;20035;-62
2022/04/17 05:08:29;;;;;;;37.63;27.00;;;;;;;;;;5059488;28;20037;-63
2022/04/17 05:10:55;;;;;;;38.45;27.42;;;;;;;;;;5057533;28;20166;-63
2022/04/17 05:13:21;;;;;;;34.58;24.80;;;;;;;;;;5060150;28;20051;-63
2022/04/17 05:15:48;;;;;;;35.33;24.05;;;;;;;;;;5060069;28;20121;-62
2022/04/17 05:18:14;;;;;;;37.97;25.05;;;;;;;;;;5066440;28;20044;-63
2022/04/17 05:20:41;;;;;;;34.72;24.83;;;;;;;;;;5066585;28;20555;-62
2022/04/17 05:23:26;;;;;;;33.30;24.83;;;;;;;;;;5054736;28;20037;-62
2022/04/17 05:25:56;;;;;;;32.50;22.95;;;;;;;;;;5052558;28;20040;-62
2022/04/17 05:28:23;;;;;;;32.97;23.25;;;;;;;;;;5058709;28;20558;-63
2022/04/17 05:30:49;;;;;;;34.90;24.48;;;;;;;;;;5064155;28;20131;-63
2022/04/17 05:33:18;;;;;;;37.40;26.25;;;;;;;;;;5063686;28;20048;-62
2022/04/17 05:35:44;;;;;;;31.48;22.67;;;;;;;;;;5063444;28;20507;-63
2022/04/17 05:38:11;;;;;;;35.45;23.52;;;;;;;;;;5033208;28;20083;-63
2022/04/17 05:40:43;;;;;;;32.38;22.60;;;;;;;;;;5044433;28;20051;-62
2022/04/17 05:43:10;;;;;;;30.85;22.10;;;;;;;;;;5064405;28;20065;-63
2022/04/17 05:45:37;;;;;;;33.63;24.65;;;;;;;;;;5051139;28;20452;-62
2022/04/17 05:48:03;;;;;;;30.60;20.38;;;;;;;;;;5062733;28;20120;-61
2022/04/17 05:50:29;;;;;;;33.97;24.33;;;;;;;;;;5052430;28;20036;-62
2022/04/17 05:52:56;;;;;;;33.40;22.75;;;;;;;;;;5060864;28;20048;-63
2022/04/17 05:55:22;;;;;;;33.90;23.38;;;;;;;;;;5061036;28;20446;-61
2022/04/17 05:57:48;;;;;;;28.50;20.65;;;;;;;;;;5062454;28;20092;-63
2022/04/17 06:00:16;;;;;;;31.30;21.65;;;;;;;;;;5058584;28;20048;-63
2022/04/17 06:02:44;;;;;;;30.33;19.75;;;;;;;;;;5044261;28;20647;-62
2022/04/17 06:05:11;;;;;;;31.80;21.83;;;;;;;;;;5054624;28;20037;-62
2022/04/17 06:07:37;;;;;;;24.67;15.73;;;;;;;;;;5059118;28;20545;-63
2022/04/17 06:10:04;;;;;;;32.33;23.73;;;;;;;;;;5060562;28;20046;-62
2022/04/17 06:12:30;;;;;;;35.17;25.00;;;;;;;;;;5056024;28;20040;-62
2022/04/17 06:14:57;;;;;;;37.50;24.75;;;;;;;;;;5053545;28;20052;-63
2022/04/17 06:17:23;;;;;;;33.45;21.80;;;;;;;;;;5041228;28;20036;-63
2022/04/17 06:19:49;;;;;;;32.42;23.05;;;;;;;;;;5054272;28;20041;-63
2022/04/17 06:22:15;;;;;;;31.27;23.73;;;;;;;;;;5036695;28;20048;-63
2022/04/17 06:24:41;;;;;;;31.23;23.00;;;;;;;;;;5058844;28;20064;-63
2022/04/17 06:27:07;;;;;;;31.10;21.50;;;;;;;;;;5058832;28;20115;-61
2022/04/17 06:29:34;;;;;;;28.85;19.65;;;;;;;;;;5068446;28;20659;-60
2022/04/17 06:32:01;;;;;;;27.77;21.85;;;;;;;;;;5043698;28;20048;-62
2022/04/17 06:34:27;;;;;;;28.90;19.73;;;;;;;;;;5058579;28;20080;-61
2022/04/17 06:36:53;;;;;;;29.60;20.60;;;;;;;;;;5051997;28;20536;-62
2022/04/17 06:39:19;;;;;;;26.70;19.92;;;;;;;;;;5055831;28;20093;-61
2022/04/17 06:41:45;;;;;;;27.42;20.40;;;;;;;;;;5057884;28;20041;-61
2022/04/17 06:44:12;;;;;;;28.63;19.92;;;;;;;;;;5065098;28;20033;-61
2022/04/17 06:46:39;;;;;;;26.63;19.83;;;;;;;;;;5044342;28;20067;-62
2022/04/17 06:49:05;;;;;;;27.40;19.63;;;;;;;;;;5068946;28;20068;-60
2022/04/17 06:51:31;;;;;;;25.77;18.98;;;;;;;;;;5056863;28;20045;-61
2022/04/17 06:53:57;;;;;;;22.60;17.25;;;;;;;;;;5064151;28;20109;-62
2022/04/17 06:56:23;;;;;;;22.90;18.45;;;;;;;;;;5055282;28;20055;-61
2022/04/17 06:58:49;;;;;;;23.98;18.95;;;;;;;;;;5054765;28;20041;-62
2022/04/17 07:01:15;;;;;;;27.50;17.63;;;;;;;;;;5053551;28;20126;-61
2022/04/17 07:03:42;;;;;;;21.75;15.30;;;;;;;;;;5058760;28;20164;-61
2022/04/17 07:06:08;;;;;;;21.52;16.67;;;;;;;;;;5057180;28;20041;-62
2022/04/17 07:08:34;;;;;;;22.13;16.13;;;;;;;;;;5059624;28;20033;-61
2022/04/17 07:11:01;;;;;;;21.48;14.65;;;;;;;;;;5051788;28;20033;-61
2022/04/17 07:13:27;;;;;;;19.42;15.45;;;;;;;;;;5061286;28;20049;-62
2022/04/17 07:15:53;;;;;;;21.08;16.02;;;;;;;;;;5055614;28;20040;-62
2022/04/17 07:18:19;;;;;;;19.85;14.88;;;;;;;;;;5063518;28;20146;-62
2022/04/17 07:20:45;;;;;;;16.08;13.18;;;;;;;;;;5059007;28;20526;-62
2022/04/17 07:23:11;;;;;;;14.95;11.70;;;;;;;;;;5056670;28;20043;-62
2022/04/17 07:25:37;;;;;;;12.77;10.52;;;;;;;;;;5066126;28;20147;-62
2022/04/17 07:28:04;;;;;;;14.80;11.68;;;;;;;;;;5051925;28;20044;-62
2022/04/17 07:30:32;;;;;;;14.90;11.02;;;;;;;;;;5057539;28;20106;-63
2022/04/17 07:32:59;;;;;;;14.68;11.43;;;;;;;;;;5057939;28;20132;-63
2022/04/17 07:35:26;;;;;;;15.82;11.25;;;;;;;;;;5060114;28;20597;-63
2022/04/17 07:37:52;;;;;;;14.95;11.18;;;;;;;;;;5057371;28;20072;-63
2022/04/17 07:40:21;;;;;;;12.85;10.48;;;;;;;;;;5058756;28;20094;-63
2022/04/17 07:42:48;;;;;;;16.52;11.48;;;;;;;;;;5057311;28;20044;-63
2022/04/17 07:45:15;;;;;;;14.55;11.68;;;;;;;;;;5054658;28;20467;-62
2022/04/17 07:47:41;;;;;;;14.38;9.82;;;;;;;;;;5070602;28;20047;-63
2022/04/17 07:50:08;;;;;;;13.40;9.52;;;;;;;;;;5054351;28;20041;-63
2022/04/17 07:52:36;;;;;;;11.73;8.57;;;;;;;;;;5059337;28;20491;-63
2022/04/17 07:55:04;;;;;;;12.45;9.18;;;;;;;;;;5055552;28;20055;-63
2022/04/17 07:57:54;;;;;;;12.02;8.77;;;;;;;;;;5057006;28;20455;-63
2022/04/17 08:00:21;;;;;;;11.85;8.05;;;;;;;;;;5053777;28;20288;-63
2022/04/17 08:03:06;;;;;;;10.40;8.50;;;;;;;;;;5052569;28;20052;-62
2022/04/17 08:05:35;;;;;;;11.60;9.00;;;;;;;;;;5052781;28;20078;-64
2022/04/17 08:08:01;;;;;;;9.52;8.02;;;;;;;;;;5060317;28;20124;-62
2022/04/17 08:10:27;;;;;;;9.88;8.07;;;;;;;;;;5034739;28;20037;-63
2022/04/17 08:12:55;;;;;;;10.70;7.97;;;;;;;;;;5049661;28;20103;-62
2022/04/17 08:15:21;;;;;;;10.93;9.07;;;;;;;;;;5055555;28;20044;-63
2022/04/17 08:17:47;;;;;;;10.85;8.70;;;;;;;;;;5036669;28;20048;-63
2022/04/17 08:20:13;;;;;;;9.40;8.10;;;;;;;;;;5052709;28;20040;-64
2022/04/17 08:22:39;;;;;;;8.93;7.95;;;;;;;;;;5055780;28;20508;-62
2022/04/17 08:25:06;;;;;;;11.02;8.23;;;;;;;;;;5056528;28;20037;-63
2022/04/17 08:27:32;;;;;;;10.35;8.40;;;;;;;;;;5063160;28;20036;-62
2022/04/17 08:29:59;;;;;;;9.70;7.97;;;;;;;;;;5056253;28;20417;-63
2022/04/17 08:32:25;;;;;;;10.27;8.48;;;;;;;;;;5057364;28;20089;-63
2022/04/17 08:34:51;;;;;;;10.40;8.15;;;;;;;;;;5057388;28;20650;-63
2022/04/17 08:37:17;;;;;;;10.10;7.55;;;;;;;;;;5035158;28;20369;-62
2022/04/17 08:39:43;;;;;;;10.93;7.30;;;;;;;;;;5056935;28;20091;-64
2022/04/17 08:42:11;;;;;;;9.82;7.82;;;;;;;;;;5059971;28;20068;-62
2022/04/17 08:44:37;;;;;;;9.13;7.85;;;;;;;;;;5056831;28;20044;-64
2022/04/17 08:47:03;;;;;;;9.95;7.50;;;;;;;;;;5059274;28;20033;-64
2022/04/17 08:49:29;;;;;;;9.40;7.85;;;;;;;;;;5053417;28;20044;-63
2022/04/17 08:51:56;;;;;;;8.20;7.13;;;;;;;;;;5059617;28;20498;-65
2022/04/17 08:54:26;;;;;;;10.93;7.18;;;;;;;;;;5056535;28;20129;-62
2022/04/17 08:56:52;;;;;;;8.13;6.40;;;;;;;;;;5058897;28;20088;-63
2022/04/17 08:59:18;;;;;;;9.73;6.82;;;;;;;;;;5052747;28;20037;-62
2022/04/17 09:01:45;;;;;;;8.90;6.90;;;;;;;;;;5058978;28;20029;-63
2022/04/17 09:04:12;;;;;;;9.25;7.03;;;;;;;;;;5064657;28;20420;-62
2022/04/17 09:06:39;;;;;;;7.10;6.40;;;;;;;;;;5042356;28;20048;-62
2022/04/17 09:09:06;;;;;;;7.38;6.50;;;;;;;;;;5032183;28;20045;-62
2022/04/17 09:11:34;;;;;;;7.43;6.10;;;;;;;;;;5053506;28;20033;-62
2022/04/17 09:14:01;;;;;;;7.55;6.15;;;;;;;;;;5059049;28;20037;-63
2022/04/17 09:16:34;;;;;;;6.45;5.80;;;;;;;;;;5054218;28;20101;-64
2022/04/17 09:19:11;;;;;;;6.00;5.10;;;;;;;;;;5061580;28;20490;-63
2022/04/17 09:21:37;;;;;;;6.28;5.60;;;;;;;;;;5056302;28;20572;-63
2022/04/17 09:24:16;;;;;;;5.88;4.68;;;;;;;;;;5056085;28;20041;-63
2022/04/17 09:27:12;;;;;;;6.75;5.60;;;;;;;;;;5038731;28;20040;-63
2022/04/17 09:29:39;;;;;;;6.43;5.55;;;;;;;;;;5036113;28;20044;-64
2022/04/17 09:32:12;;;;;;;7.45;5.00;;;;;;;;;;5052935;28;20299;-63
2022/04/17 09:34:42;;;;;;;8.77;5.32;;;;;;;;;;5053649;28;20060;-63
2022/04/17 09:37:18;;;;;;;6.82;5.18;;;;;;;;;;5054475;28;20071;-63
2022/04/17 09:39:45;;;;;;;6.03;5.43;;;;;;;;;;5051809;28;20041;-63
2022/04/17 09:42:11;;;;;;;8.65;5.78;;;;;;;;;;5036573;28;20120;-63
2022/04/17 09:44:37;;;;;;;5.53;4.88;;;;;;;;;;5056554;28;20103;-63
2022/04/17 09:47:05;;;;;;;5.22;4.57;;;;;;;;;;5057066;28;20041;-65
2022/04/17 09:49:31;;;;;;;6.07;5.18;;;;;;;;;;5072407;28;20047;-64
2022/04/17 09:52:09;;;;;;;7.93;5.30;;;;;;;;;;4983068;28;20119;-63
2022/04/17 09:54:35;;;;;;;5.28;4.22;;;;;;;;;;4997040;28;20049;-63
2022/04/17 09:57:01;;;;;;;6.40;4.30;;;;;;;;;;5074991;28;20072;-64
2022/04/17 09:59:28;;;;;;;4.82;4.30;;;;;;;;;;5063802;28;20049;-64
2022/04/17 10:01:55;;;;;;;5.63;4.43;;;;;;;;;;5033854;28;20076;-64
2022/04/17 10:04:22;;;;;;;5.22;4.22;;;;;;;;;;5055192;28;20049;-64
2022/04/17 10:06:52;;;;;;;5.15;4.65;;;;;;;;;;5032796;28;20072;-64
2022/04/17 10:09:19;;;;;;;5.25;4.50;;;;;;;;;;5038843;28;20542;-64
2022/04/17 10:11:45;;;;;;;4.80;3.88;;;;;;;;;;5035419;28;20045;-63
2022/04/17 10:14:11;;;;;;;4.82;4.00;;;;;;;;;;5060029;28;20330;-65
2022/04/17 10:16:41;;;;;;;5.57;4.13;;;;;;;;;;5057043;28;20037;-63
2022/04/17 10:19:11;;;;;;;5.18;4.10;;;;;;;;;;5036285;28;20317;-63
2022/04/17 10:21:42;;;;;;;4.70;3.95;;;;;;;;;;5038467;28;20037;-63
2022/04/17 10:24:12;;;;;;;5.30;4.15;;;;;;;;;;5033620;28;20088;-63
2022/04/17 10:26:40;;;;;;;4.18;3.78;;;;;;;;;;5034703;28;20084;-63
2022/04/17 10:29:11;;;;;;;4.47;3.80;;;;;;;;;;5027940;28;20224;-64
2022/04/17 10:31:47;;;;;;;6.45;3.67;;;;;;;;;;5034870;28;20075;-63
2022/04/17 10:34:32;;;;;;;4.85;4.00;;;;;;;;;;5035990;28;20516;-63
2022/04/17 10:37:17;;;;;;;4.88;3.85;;;;;;;;;;5035493;28;20542;-61
2022/04/17 10:39:48;;;;;;;5.03;4.15;;;;;;;;;;5033732;28;20040;-62
2022/04/17 10:42:14;;;;;;;3.70;3.28;;;;;;;;;;5059956;28;20041;-63
2022/04/17 10:44:45;;;;;;;4.05;3.53;;;;;;;;;;5031606;28;20160;-63
2022/04/17 10:47:20;;;;;;;4.88;4.47;;;;;;;;;;5035162;28;20033;-63
2022/04/17 10:50:02;;;;;;;6.30;4.75;;;;;;;;;;5035460;28;20028;-63
2022/04/17 10:52:32;;;;;;;7.38;6.20;;;;;;;;;;5032132;28;20049;-62
2022/04/17 10:55:08;;;;;;;6.53;5.65;;;;;;;;;;5040307;28;20507;-63
2022/04/17 10:57:48;;;;;;;6.97;6.00;;;;;;;;;;5058046;28;20513;-62
2022/04/17 11:00:28;;;;;;;7.00;5.78;;;;;;;;;;5037305;28;20041;-62
2022/04/17 11:02:54;;;;;;;7.15;5.50;;;;;;;;;;5031585;28;20047;-62
2022/04/17 11:08:21;;;;;;;7.55;5.75;;;;;;;;;;5035796;28;20426;-62
2022/04/17 11:10:52;;;;;;;6.00;5.35;;;;;;;;;;5036265;28;20032;-61
2022/04/17 11:13:18;;;;;;;8.15;5.10;;;;;;;;;;5038822;28;20060;-62
2022/04/17 11:15:52;;;;;;;6.38;5.72;;;;;;;;;;5032828;28;20127;-62
2022/04/17 11:18:23;;;;;;;6.25;4.78;;;;;;;;;;5032006;28;20174;-62
2022/04/17 11:20:53;;;;;;;5.72;5.13;;;;;;;;;;5038272;28;20127;-63
2022/04/17 11:23:38;;;;;;;6.50;5.65;;;;;;;;;;5032479;28;20042;-64
2022/04/17 11:26:04;;;;;;;6.07;5.10;;;;;;;;;;5054612;28;20718;-62
2022/04/17 11:28:34;;;;;;;5.80;4.95;;;;;;;;;;5055413;28;20435;-62
2022/04/17 11:31:00;;;;;;;6.15;4.70;;;;;;;;;;5034851;28;20048;-62
2022/04/17 11:33:27;;;;;;;5.28;4.78;;;;;;;;;;5033560;28;20139;-64
2022/04/17 11:35:53;;;;;;;7.28;5.30;;;;;;;;;;5054159;28;20046;-63
2022/04/17 11:38:20;;;;;;;5.38;4.88;;;;;;;;;;5034007;28;20095;-63
2022/04/17 11:40:48;;;;;;;6.30;5.18;;;;;;;;;;5032699;28;20080;-62
2022/04/17 11:43:15;;;;;;;6.57;4.97;;;;;;;;;;5055276;28;20048;-63
2022/04/17 11:45:42;;;;;;;5.55;4.57;;;;;;;;;;5027161;28;20075;-63
2022/04/17 11:48:12;;;;;;;5.15;4.65;;;;;;;;;;5019309;28;20491;-62
2022/04/17 11:50:39;;;;;;;4.53;4.07;;;;;;;;;;5059190;28;20479;-62
2022/04/17 11:53:09;;;;;;;5.07;3.97;;;;;;;;;;5033132;28;20045;-62
2022/04/17 11:55:36;;;;;;;6.25;4.80;;;;;;;;;;5032933;28;20045;-63
2022/04/17 11:58:03;;;;;;;4.57;3.97;;;;;;;;;;5035896;28;20045;-64
2022/04/17 12:00:30;;;;;;;5.43;4.35;;;;;;;;;;5036423;28;20036;-62
2022/04/17 12:02:56;;;;;;;5.45;4.63;;;;;;;;;;5034098;28;20108;-64
2022/04/17 12:05:23;;;;;;;6.38;4.80;;;;;;;;;;5032925;28;20072;-64
2022/04/17 12:08:01;;;;;;;5.72;4.70;;;;;;;;;;5034504;28;20033;-61
2022/04/17 12:10:27;;;;;;;5.10;4.40;;;;;;;;;;5030653;28;20043;-63
2022/04/17 12:12:53;;;;;;;5.68;4.30;;;;;;;;;;5031897;28;20067;-64
2022/04/17 12:15:20;;;;;;;5.93;3.95;;;;;;;;;;5059309;28;20368;-63
2022/04/17 12:17:56;;;;;;;4.82;4.32;;;;;;;;;;5036588;28;20053;-65
2022/04/17 12:20:22;;;;;;;4.82;4.32;;;;;;;;;;5034846;28;20048;-63
2022/04/17 12:22:48;;;;;;;4.43;3.25;;;;;;;;;;5025727;28;20091;-63
2022/04/17 12:25:22;;;;;;;3.97;3.38;;;;;;;;;;5060349;28;20048;-63
2022/04/17 12:27:52;;;;;;;5.88;3.95;;;;;;;;;;5043651;28;20664;-63
2022/04/17 12:30:19;;;;;;;4.07;3.30;;;;;;;;;;5042356;28;20495;-63
2022/04/17 12:32:46;;;;;;;4.22;3.30;;;;;;;;;;5062413;28;20056;-62
2022/04/17 12:35:15;;;;;;;4.20;3.53;;;;;;;;;;5062735;28;20280;-63
2022/04/17 12:37:41;;;;;;;5.40;3.10;;;;;;;;;;5037193;28;20033;-62
2022/04/17 12:40:08;;;;;;;4.03;3.05;;;;;;;;;;5041666;28;20053;-63
2022/04/17 12:42:34;;;;;;;5.30;3.00;;;;;;;;;;5040936;28;20080;-63
2022/04/17 12:45:00;;;;;;;3.63;2.70;;;;;;;;;;5041580;28;20183;-64
2022/04/17 12:47:26;;;;;;;3.40;2.53;;;;;;;;;;5039669;28;20041;-64
2022/04/17 12:50:01;;;;;;;3.67;2.55;;;;;;;;;;5064188;28;20116;-62
2022/04/17 12:52:27;;;;;;;2.88;1.92;;;;;;;;;;5036671;28;20194;-62
2022/04/17 12:54:56;;;;;;;2.95;2.10;;;;;;;;;;5065413;28;20041;-63
2022/04/17 12:57:22;;;;;;;4.50;2.10;;;;;;;;;;5029631;28;20049;-63
2022/04/17 12:59:49;;;;;;;3.03;1.95;;;;;;;;;;5031599;28;20167;-63
2022/04/17 13:02:17;;;;;;;2.78;2.03;;;;;;;;;;5034410;28;20524;-62
2022/04/17 13:04:47;;;;;;;3.67;2.13;;;;;;;;;;5036329;28;20043;-62
2022/04/17 13:07:14;;;;;;;3.22;2.20;;;;;;;;;;5063024;28;20077;-63
2022/04/17 13:09:50;;;;;;;3.95;2.17;;;;;;;;;;5062856;28;20540;-62
2022/04/17 13:12:35;;;;;;;2.88;2.10;;;;;;;;;;5034127;28;20462;-61
2022/04/17 13:15:02;;;;;;;2.70;1.90;;;;;;;;;;5065113;28;20483;-63
2022/04/17 13:17:28;;;;;;;4.82;2.40;;;;;;;;;;5062198;28;20038;-62
2022/04/17 13:19:54;;;;;;;3.42;2.25;;;;;;;;;;5041811;28;20084;-62
2022/04/17 13:22:21;;;;;;;8.98;2.20;;;;;;;;;;5040728;28;20078;-61
2022/04/17 13:24:47;;;;;;;2.92;1.90;;;;;;;;;;5065933;28;20140;-61
2022/04/17 13:27:13;;;;;;;3.83;1.75;;;;;;;;;;5031963;28;20036;-61
2022/04/17 13:29:39;;;;;;;7.45;1.30;;;;;;;;;;5041781;28;20041;-61
2022/04/17 13:32:07;;;;;;;2.40;1.90;;;;;;;;;;5037766;28;20506;-61
2022/04/17 13:34:33;;;;;;;3.00;1.50;;;;;;;;;;5021608;28;20087;-61
2022/04/17 13:39:44;;;;;;;4.78;1.83;;;;;;;;;;5065902;28;20040;-62
2022/04/17 13:42:11;;;;;;;6.95;1.70;;;;;;;;;;5037182;28;20050;-62
2022/04/17 13:44:40;;;;;;;5.60;1.75;;;;;;;;;;5036037;28;20038;-62
2022/04/17 13:47:07;;;;;;;5.13;1.73;;;;;;;;;;5030034;28;20511;-63
2022/04/17 13:49:33;;;;;;;3.13;1.42;;;;;;;;;;5039112;28;20155;-63
2022/04/17 13:51:59;;;;;;;2.42;1.77;;;;;;;;;;5028398;28;20041;-63
2022/04/17 13:54:26;;;;;;;5.15;2.17;;;;;;;;;;5069855;28;20037;-62
2022/04/17 13:56:52;;;;;;;2.40;1.58;;;;;;;;;;5039339;28;20029;-63
2022/04/17 13:59:19;;;;;;;5.05;1.45;;;;;;;;;;5028890;28;20465;-61
2022/04/17 14:01:45;;;;;;;3.63;1.80;;;;;;;;;;5038333;28;20151;-62
2022/04/17 14:04:12;;;;;;;2.67;1.77;;;;;;;;;;5029848;28;20064;-62
2022/04/17 14:06:38;;;;;;;3.28;1.70;;;;;;;;;;5064301;28;20041;-61
2022/04/17 14:09:04;;;;;;;2.22;1.48;;;;;;;;;;5045293;28;20047;-62
2022/04/17 14:11:31;;;;;;;2.95;1.25;;;;;;;;;;5038633;28;20472;-60
2022/04/17 14:13:57;;;;;;;4.68;1.60;;;;;;;;;;5037844;28;20045;-61
2022/04/17 14:16:23;;;;;;;8.40;1.88;;;;;;;;;;5036012;28;20397;-63
2022/04/17 14:18:49;;;;;;;4.10;1.52;;;;;;;;;;5040836;28;20044;-60
2022/04/17 14:21:16;;;;;;;1.60;1.10;;;;;;;;;;5022437;28;20043;-61
2022/04/17 14:23:42;;;;;;;2.95;1.30;;;;;;;;;;5060857;28;20708;-61
2022/04/17 14:26:08;;;;;;;2.05;1.00;;;;;;;;;;5035339;28;20037;-61
2022/04/17 14:28:34;;;;;;;2.78;1.15;;;;;;;;;;5031200;28;20037;-61
2022/04/17 14:31:03;;;;;;;3.40;1.52;;;;;;;;;;5035563;28;20044;-61
2022/04/17 14:33:29;;;;;;;3.95;1.27;;;;;;;;;;5038630;28;20061;-61
2022/04/17 14:35:58;;;;;;;2.28;1.70;;;;;;;;;;5063687;28;20080;-61
2022/04/17 14:38:24;;;;;;;1.70;1.13;;;;;;;;;;5029278;28;20092;-61
2022/04/17 14:40:50;;;;;;;3.05;1.95;;;;;;;;;;5045029;28;20091;-60
2022/04/17 14:43:16;;;;;;;3.15;2.10;;;;;;;;;;5045555;28;20057;-61
2022/04/17 14:45:47;;;;;;;4.55;2.10;;;;;;;;;;5031248;28;20095;-62
2022/04/17 14:48:13;;;;;;;2.90;1.50;;;;;;;;;;5065829;28;20487;-62
2022/04/17 14:50:39;;;;;;;2.38;1.65;;;;;;;;;;5039178;28;20037;-62
2022/04/17 14:53:07;;;;;;;1.88;1.30;;;;;;;;;;5043515;28;20052;-65